Time;durP1;ratioP1;P1;durP2;ratioP2;P2;SDS_P1;SDS_P2;PMS_P1;PMS_P2;Temp;Humidity;BMP_temperature;BMP_pressure;BME280_temperature;BME280_humidity;BME280_pressure;Samples;Min_cycle;Max_cycle;Signal;HPM_P1;HPM_P2
2022/04/18 00:02:05;;;;;;;4.40;2.80;;;6.60;93.20;;;;;;5045520;28;20488;-74
2022/04/18 00:04:33;;;;;;;3.53;2.97;;;6.50;93.30;;;;;;5041134;28;20979;-73
2022/04/18 00:06:59;;;;;;;3.40;3.10;;;6.50;93.40;;;;;;5031342;28;20449;-74
2022/04/18 00:09:26;;;;;;;3.90;3.50;;;6.50;93.40;;;;;;5030998;28;20535;-73
2022/04/18 00:11:53;;;;;;;4.63;2.90;;;6.50;93.40;;;;;;5031131;28;20508;-74
2022/04/18 00:14:19;;;;;;;5.87;4.10;;;6.50;93.50;;;;;;5030308;28;20504;-74
2022/04/18 00:16:46;;;;;;;3.43;3.13;;;6.40;93.50;;;;;;5032005;28;20921;-73
2022/04/18 00:19:13;;;;;;;4.90;3.50;;;6.40;94.10;;;;;;5030859;28;21204;-73
2022/04/18 00:21:41;;;;;;;7.80;3.40;;;6.40;94.10;;;;;;5031138;28;20485;-74
2022/04/18 00:24:08;;;;;;;9.83;3.50;;;6.40;94.30;;;;;;5030713;28;20807;-73
2022/04/18 00:26:37;;;;;;;3.60;3.03;;;6.30;94.40;;;;;;5039569;28;20457;-73
2022/04/18 00:29:03;;;;;;;3.10;2.90;;;6.30;94.50;;;;;;5030477;28;20487;-73
2022/04/18 00:31:30;;;;;;;3.20;2.90;;;6.30;94.60;;;;;;5034477;28;20453;-74
2022/04/18 00:33:56;;;;;;;6.33;3.30;;;6.20;94.40;;;;;;5030605;28;20936;-74
2022/04/18 00:36:23;;;;;;;4.50;3.20;;;6.20;94.40;;;;;;5046224;28;20963;-74
2022/04/18 00:38:51;;;;;;;3.77;3.10;;;6.10;94.50;;;;;;5041699;28;20588;-74
2022/04/18 00:41:18;;;;;;;2.97;2.77;;;6.10;94.50;;;;;;5031091;28;20485;-73
2022/04/18 00:43:46;;;;;;;3.57;3.27;;;6.10;94.40;;;;;;5048455;28;20453;-73
2022/04/18 00:46:14;;;;;;;5.50;3.60;;;6.10;94.50;;;;;;5044875;28;20512;-73
2022/04/18 00:48:41;;;;;;;5.80;3.70;;;6.10;94.50;;;;;;5031634;28;20446;-73
2022/04/18 00:51:11;;;;;;;5.63;3.47;;;6.10;94.50;;;;;;5030581;28;20988;-73
2022/04/18 00:53:39;;;;;;;4.40;3.50;;;6.10;94.50;;;;;;5048917;28;20465;-73
2022/04/18 00:56:08;;;;;;;5.10;3.43;;;6.10;94.70;;;;;;5050475;28;20955;-74
2022/04/18 00:58:35;;;;;;;3.40;3.10;;;6.20;95.10;;;;;;5053354;28;20459;-73
2022/04/18 01:01:02;;;;;;;4.33;3.17;;;6.20;95.40;;;;;;5037543;28;20457;-73
2022/04/18 01:03:30;;;;;;;4.43;3.23;;;6.20;95.30;;;;;;5041983;28;20470;-74
2022/04/18 01:05:57;;;;;;;3.33;3.13;;;6.10;95.50;;;;;;5053224;28;21051;-73
2022/04/18 01:08:25;;;;;;;3.90;3.37;;;6.10;95.70;;;;;;5044809;28;20454;-73
2022/04/18 01:10:52;;;;;;;3.33;3.03;;;6.00;95.60;;;;;;5034515;28;20559;-74
2022/04/18 01:13:20;;;;;;;3.80;3.40;;;6.00;95.90;;;;;;5041023;28;20464;-74
2022/04/18 01:15:46;;;;;;;3.43;3.00;;;6.00;95.80;;;;;;5035237;28;20503;-74
2022/04/18 01:18:13;;;;;;;5.20;3.37;;;6.00;95.80;;;;;;5034441;28;20458;-73
2022/04/18 01:20:43;;;;;;;3.90;3.50;;;6.00;96.10;;;;;;5044045;28;20542;-73
2022/04/18 01:23:11;;;;;;;3.63;3.00;;;5.90;96.20;;;;;;5053278;28;20496;-74
2022/04/18 01:31:06;;;;;;;7.13;5.17;;;5.80;96.80;;;;;;5033975;28;20856;-74
2022/04/18 01:33:33;;;;;;;5.47;4.40;;;5.70;96.90;;;;;;5041887;28;20809;-73
2022/04/18 01:36:01;;;;;;;12.07;3.70;;;5.60;97.30;;;;;;5049179;28;20940;-74
2022/04/18 01:38:28;;;;;;;5.30;4.17;;;5.60;97.50;;;;;;5052346;28;21033;-73
2022/04/18 01:40:55;;;;;;;6.00;3.97;;;5.50;97.60;;;;;;5038233;28;20479;-73
2022/04/18 01:43:22;;;;;;;4.60;4.10;;;5.50;98.00;;;;;;5033616;28;20493;-73
2022/04/18 01:45:48;;;;;;;6.93;4.00;;;5.40;98.10;;;;;;5034859;28;20453;-73
2022/04/18 01:48:15;;;;;;;4.43;3.80;;;5.40;98.30;;;;;;5052883;28;20537;-74
2022/04/18 01:50:41;;;;;;;4.87;3.77;;;5.40;98.50;;;;;;5033797;28;20534;-73
2022/04/18 01:53:09;;;;;;;6.53;3.87;;;5.30;98.70;;;;;;5033725;28;20872;-74
2022/04/18 01:55:36;;;;;;;4.83;4.03;;;5.30;98.70;;;;;;5049958;28;20452;-74
2022/04/18 01:58:05;;;;;;;6.40;3.67;;;5.30;99.00;;;;;;5037367;28;20456;-74
2022/04/18 02:00:32;;;;;;;4.17;3.70;;;5.30;99.20;;;;;;5049646;28;20465;-73
2022/04/18 02:02:58;;;;;;;7.00;4.10;;;5.30;99.40;;;;;;5033242;28;20485;-74
2022/04/18 02:05:25;;;;;;;3.77;3.47;;;5.30;99.50;;;;;;5051931;28;21018;-73
2022/04/18 02:07:52;;;;;;;4.03;3.70;;;5.20;99.60;;;;;;5052271;28;20444;-73
2022/04/18 02:10:20;;;;;;;7.30;4.10;;;5.30;99.90;;;;;;5052504;28;20583;-73
2022/04/18 02:12:46;;;;;;;5.17;4.07;;;5.30;99.90;;;;;;5051166;28;20448;-73
2022/04/18 02:15:15;;;;;;;3.80;3.37;;;5.30;99.90;;;;;;5052153;28;20510;-73
2022/04/18 02:17:41;;;;;;;4.97;3.53;;;5.30;99.90;;;;;;5050216;28;20936;-74
2022/04/18 02:20:09;;;;;;;4.90;4.33;;;5.30;99.90;;;;;;5040031;28;20477;-72
2022/04/18 02:22:35;;;;;;;4.80;4.10;;;5.40;99.90;;;;;;5033211;28;20559;-72
2022/04/18 02:25:02;;;;;;;5.30;4.27;;;5.40;99.90;;;;;;5032851;28;20454;-72
2022/04/18 02:27:30;;;;;;;4.93;3.70;;;5.40;99.90;;;;;;5034769;28;20453;-71
2022/04/18 02:29:57;;;;;;;4.83;3.80;;;5.30;99.90;;;;;;5032389;28;20473;-72
2022/04/18 02:35:09;;;;;;;4.73;3.63;;;5.30;99.90;;;;;;5042421;28;20518;-71
2022/04/18 02:37:35;;;;;;;5.47;4.00;;;5.20;99.90;;;;;;5032735;28;20457;-72
2022/04/18 02:40:02;;;;;;;6.37;4.13;;;5.20;99.90;;;;;;5032244;28;20469;-72
2022/04/18 02:42:30;;;;;;;5.13;4.00;;;5.20;99.90;;;;;;5049006;28;20768;-72
2022/04/18 02:44:57;;;;;;;4.30;3.90;;;5.10;99.90;;;;;;5051630;28;20464;-72
2022/04/18 02:47:23;;;;;;;4.30;3.90;;;5.10;99.90;;;;;;5036777;28;20457;-72
2022/04/18 02:49:51;;;;;;;5.53;3.97;;;5.10;99.90;;;;;;5033637;28;20470;-72
2022/04/18 02:52:17;;;;;;;7.00;3.97;;;5.00;99.90;;;;;;5039301;28;20527;-72
2022/04/18 02:54:44;;;;;;;4.70;4.10;;;5.00;99.90;;;;;;5037668;28;20980;-72
2022/04/18 02:57:12;;;;;;;3.93;3.50;;;4.90;99.90;;;;;;5033318;28;20906;-72
2022/04/18 02:59:39;;;;;;;4.50;4.10;;;4.90;99.90;;;;;;5032504;28;20481;-72
2022/04/18 03:02:06;;;;;;;4.90;3.93;;;4.90;99.90;;;;;;5048801;28;20488;-71
2022/04/18 03:04:33;;;;;;;4.47;4.03;;;4.90;99.90;;;;;;5035419;28;20912;-72
2022/04/18 03:07:00;;;;;;;3.90;3.50;;;4.90;99.90;;;;;;5033803;28;20454;-72
2022/04/18 03:09:27;;;;;;;4.90;3.83;;;4.90;99.90;;;;;;5051500;28;20484;-72
2022/04/18 03:11:54;;;;;;;6.37;3.80;;;4.90;99.90;;;;;;5040998;28;20487;-72
2022/04/18 03:14:21;;;;;;;4.23;3.87;;;4.90;99.90;;;;;;5051275;28;20460;-72
2022/04/18 03:16:49;;;;;;;4.40;4.00;;;4.90;99.90;;;;;;5032841;28;20457;-72
2022/04/18 03:19:16;;;;;;;4.63;3.90;;;4.90;99.90;;;;;;5047700;28;20587;-72
2022/04/18 03:21:43;;;;;;;5.07;3.90;;;4.80;99.90;;;;;;5032813;28;20461;-72
2022/04/18 03:24:09;;;;;;;4.40;4.00;;;4.80;99.90;;;;;;5032147;28;20972;-72
2022/04/18 03:26:36;;;;;;;10.30;4.50;;;4.80;99.90;;;;;;5035670;28;20450;-72
2022/04/18 03:29:03;;;;;;;7.20;4.30;;;4.70;99.90;;;;;;5032117;28;20473;-72
2022/04/18 03:31:29;;;;;;;4.60;4.00;;;4.70;99.90;;;;;;5032032;28;20458;-72
2022/04/18 03:33:57;;;;;;;7.20;4.57;;;4.60;99.90;;;;;;5031783;28;20488;-71
2022/04/18 03:41:53;;;;;;;4.97;4.17;;;4.50;99.90;;;;;;5039550;28;20770;-72
2022/04/18 03:44:19;;;;;;;5.50;3.80;;;4.30;99.90;;;;;;5031123;28;20519;-72
2022/04/18 03:46:46;;;;;;;7.80;4.03;;;4.40;99.90;;;;;;5045442;28;20865;-72
2022/04/18 03:49:14;;;;;;;4.97;3.73;;;4.40;99.90;;;;;;5051011;28;20534;-72
2022/04/18 03:51:41;;;;;;;4.10;3.70;;;4.40;99.90;;;;;;5050581;28;20452;-72
2022/04/18 03:54:08;;;;;;;4.90;3.70;;;4.40;99.90;;;;;;5049571;28;20452;-72
2022/04/18 03:56:34;;;;;;;5.47;4.07;;;4.40;99.90;;;;;;5036149;28;20500;-72
2022/04/18 03:59:01;;;;;;;4.00;3.70;;;4.30;99.90;;;;;;5031715;28;20481;-72
2022/04/18 04:01:27;;;;;;;5.70;3.40;;;4.30;99.90;;;;;;5031411;28;20507;-72
2022/04/18 04:03:54;;;;;;;4.07;3.50;;;4.30;99.90;;;;;;5041874;28;20479;-71
2022/04/18 04:06:22;;;;;;;3.27;2.97;;;4.20;99.90;;;;;;5036865;28;20950;-72
2022/04/18 04:08:49;;;;;;;4.17;3.40;;;4.10;99.90;;;;;;5050300;28;20456;-72
2022/04/18 04:11:15;;;;;;;5.53;4.00;;;4.00;99.90;;;;;;5036522;28;20457;-72
2022/04/18 04:13:42;;;;;;;5.00;3.90;;;3.90;99.90;;;;;;5048324;28;20940;-72
2022/04/18 04:16:09;;;;;;;5.43;3.53;;;3.90;99.90;;;;;;5036286;28;20832;-72
2022/04/18 04:18:35;;;;;;;7.13;4.07;;;3.80;99.90;;;;;;5035951;28;20461;-72
2022/04/18 04:21:02;;;;;;;5.00;3.90;;;3.80;99.90;;;;;;5036739;28;20456;-72
2022/04/18 04:23:30;;;;;;;5.63;3.57;;;3.80;99.90;;;;;;5049208;28;20481;-72
2022/04/18 04:25:57;;;;;;;6.77;4.10;;;3.70;99.90;;;;;;5035375;28;20448;-71
2022/04/18 04:28:23;;;;;;;7.47;4.20;;;3.70;99.90;;;;;;5042231;28;20857;-72
2022/04/18 04:30:50;;;;;;;4.93;4.20;;;3.70;99.90;;;;;;5030953;28;20473;-71
2022/04/18 04:33:17;;;;;;;6.73;4.30;;;3.70;99.90;;;;;;5030798;28;20458;-72
2022/04/18 04:35:43;;;;;;;5.67;4.83;;;3.70;99.90;;;;;;5040497;28;20460;-72
2022/04/18 04:38:10;;;;;;;5.03;4.33;;;3.70;99.90;;;;;;5044917;28;20449;-72
2022/04/18 04:40:38;;;;;;;5.10;3.80;;;3.70;99.90;;;;;;5046124;28;20503;-72
2022/04/18 04:43:05;;;;;;;4.20;3.60;;;3.70;99.90;;;;;;5050622;28;20472;-72
2022/04/18 04:45:32;;;;;;;4.40;3.90;;;3.80;99.90;;;;;;5033681;28;20804;-72
2022/04/18 04:47:59;;;;;;;5.90;4.60;;;3.80;99.90;;;;;;5030862;28;20453;-72
2022/04/18 04:50:25;;;;;;;4.40;4.00;;;3.80;99.90;;;;;;5046924;28;21011;-72
2022/04/18 04:52:52;;;;;;;6.70;4.17;;;3.70;99.90;;;;;;5050562;28;20457;-72
2022/04/18 04:55:19;;;;;;;6.60;4.23;;;3.70;99.90;;;;;;5049537;28;20456;-72
2022/04/18 04:57:47;;;;;;;4.60;3.90;;;3.70;99.90;;;;;;5049913;28;20940;-72
2022/04/18 05:00:14;;;;;;;4.57;4.03;;;3.70;99.90;;;;;;5044635;28;20531;-72
2022/04/18 05:02:42;;;;;;;4.53;3.67;;;3.70;99.90;;;;;;5047139;28;21073;-72
2022/04/18 05:05:09;;;;;;;5.97;3.60;;;3.70;99.90;;;;;;5030447;28;20488;-72
2022/04/18 05:07:36;;;;;;;7.43;3.87;;;3.80;99.90;;;;;;5037258;28;20456;-72
2022/04/18 05:10:03;;;;;;;3.93;3.40;;;3.90;99.90;;;;;;5049367;28;21074;-71
2022/04/18 05:12:31;;;;;;;4.90;3.63;;;3.90;99.90;;;;;;5050257;28;20514;-72
2022/04/18 05:15:03;;;;;;;4.53;3.83;;;3.90;99.90;;;;;;5047135;28;20449;-72
2022/04/18 05:17:29;;;;;;;4.63;4.10;;;3.90;99.90;;;;;;5045129;28;20480;-72
2022/04/18 05:19:56;;;;;;;8.03;3.80;;;4.00;99.90;;;;;;5033768;28;20836;-72
2022/04/18 05:22:23;;;;;;;4.57;4.17;;;4.10;99.90;;;;;;5035019;28;20453;-72
2022/04/18 05:24:49;;;;;;;4.80;4.30;;;4.30;99.90;;;;;;5030302;28;20486;-72
2022/04/18 05:27:16;;;;;;;5.23;4.27;;;4.70;99.90;;;;;;5030741;28;20465;-72
2022/04/18 05:29:44;;;;;;;4.30;3.67;;;5.10;99.90;;;;;;5031431;28;20512;-72
2022/04/18 05:32:12;;;;;;;6.90;4.80;;;5.50;99.90;;;;;;5045382;28;20527;-72
2022/04/18 05:34:39;;;;;;;7.10;4.47;;;6.00;99.90;;;;;;5040059;28;20452;-72
2022/04/18 05:37:07;;;;;;;5.10;4.60;;;6.40;99.90;;;;;;5049235;28;20868;-72
2022/04/18 05:39:33;;;;;;;6.60;4.50;;;6.70;99.90;;;;;;5049636;28;20890;-72
2022/04/18 05:42:01;;;;;;;6.70;5.10;;;6.90;99.90;;;;;;5037615;28;20485;-72
2022/04/18 05:44:28;;;;;;;7.10;5.10;;;7.00;99.90;;;;;;5036388;28;20517;-72
2022/04/18 05:46:55;;;;;;;6.10;4.97;;;7.20;99.90;;;;;;5045095;28;20449;-72
2022/04/18 05:49:23;;;;;;;5.47;4.50;;;7.40;99.90;;;;;;5043081;28;20468;-72
2022/04/18 05:51:50;;;;;;;5.10;4.40;;;7.60;99.90;;;;;;5053349;28;20456;-72
2022/04/18 05:54:16;;;;;;;6.40;4.70;;;7.90;99.90;;;;;;5037476;28;20507;-72
2022/04/18 05:56:43;;;;;;;5.47;4.73;;;8.30;99.90;;;;;;5033879;28;20511;-72
2022/04/18 05:59:10;;;;;;;5.63;4.83;;;8.60;99.90;;;;;;5041371;28;20542;-72
2022/04/18 06:01:37;;;;;;;7.63;4.73;;;8.90;99.90;;;;;;5038828;28;21009;-73
2022/04/18 06:04:03;;;;;;;6.47;4.33;;;9.20;99.90;;;;;;5045716;28;21014;-73
2022/04/18 06:06:31;;;;;;;6.73;4.10;;;9.60;99.90;;;;;;5053416;28;20448;-73
2022/04/18 06:08:58;;;;;;;6.77;4.30;;;10.00;99.90;;;;;;5053097;28;20498;-73
2022/04/18 06:11:25;;;;;;;4.83;4.30;;;10.40;99.90;;;;;;5041913;28;20506;-73
2022/04/18 06:13:51;;;;;;;5.80;4.63;;;10.60;99.90;;;;;;5042996;28;20450;-73
2022/04/18 06:16:18;;;;;;;7.70;4.70;;;10.90;99.90;;;;;;5043782;28;20448;-74
2022/04/18 06:18:44;;;;;;;6.93;4.80;;;11.20;99.90;;;;;;5046100;28;20457;-74
2022/04/18 06:21:12;;;;;;;7.00;4.30;;;11.50;99.90;;;;;;5033091;28;20797;-73
2022/04/18 06:23:40;;;;;;;6.10;4.77;;;11.70;99.90;;;;;;5032742;28;21052;-72
2022/04/18 06:26:06;;;;;;;5.50;4.60;;;12.10;99.90;;;;;;5041803;28;20488;-74
2022/04/18 06:28:33;;;;;;;4.40;4.00;;;12.40;99.90;;;;;;5033230;28;20507;-74
2022/04/18 06:30:59;;;;;;;6.57;4.30;;;12.70;99.90;;;;;;5043879;28;20456;-74
2022/04/18 06:33:28;;;;;;;6.30;4.00;;;12.90;99.90;;;;;;5052433;28;20452;-74
2022/04/18 06:35:55;;;;;;;4.23;3.70;;;13.00;99.90;;;;;;5044757;28;20460;-74
2022/04/18 06:38:21;;;;;;;9.80;4.00;;;13.10;99.90;;;;;;5052516;28;20452;-74
2022/04/18 06:40:49;;;;;;;4.63;4.27;;;13.20;99.90;;;;;;5050319;28;20480;-74
2022/04/18 06:43:17;;;;;;;5.67;4.00;;;13.30;99.90;;;;;;5037418;28;20484;-74
2022/04/18 06:45:43;;;;;;;4.70;3.97;;;13.20;99.90;;;;;;5044464;28;20449;-74
2022/04/18 06:48:10;;;;;;;4.80;4.13;;;13.30;99.90;;;;;;5033925;28;20453;-74
2022/04/18 06:50:37;;;;;;;5.33;3.77;;;13.50;99.60;;;;;;5034150;28;20520;-74
2022/04/18 06:53:03;;;;;;;5.93;4.00;;;13.50;99.60;;;;;;5032307;28;20453;-74
2022/04/18 06:56:58;;;;;;;7.00;3.90;;;13.50;99.90;;;;;;5031620;28;20453;-74
2022/04/18 06:58:19;;;;;;;4.37;3.80;;;13.60;99.50;;;;;;5046991;28;20458;-74
2022/04/18 07:00:46;;;;;;;5.90;3.63;;;13.70;99.50;;;;;;5050351;28;20480;-74
2022/04/18 07:03:13;;;;;;;4.53;4.00;;;13.80;99.50;;;;;;5041871;28;20583;-74
2022/04/18 07:05:40;;;;;;;5.80;4.83;;;13.80;98.40;;;;;;5032498;28;20457;-74
2022/04/18 07:08:07;;;;;;;5.23;4.10;;;13.80;99.00;;;;;;5036154;28;20453;-74
2022/04/18 07:10:34;;;;;;;6.13;4.37;;;13.80;99.30;;;;;;5051587;28;21304;-74
2022/04/18 07:13:01;;;;;;;3.77;3.47;;;13.90;98.50;;;;;;5051551;28;20506;-74
2022/04/18 07:15:29;;;;;;;4.87;3.90;;;14.00;98.10;;;;;;5044259;28;20972;-74
2022/04/18 07:17:55;;;;;;;6.30;4.20;;;14.00;97.60;;;;;;5034660;28;20461;-75
2022/04/18 07:20:22;;;;;;;4.40;4.00;;;13.90;97.90;;;;;;5049906;28;20529;-75
2022/04/18 07:22:49;;;;;;;5.13;3.43;;;14.00;97.60;;;;;;5040881;28;21005;-75
2022/04/18 07:25:16;;;;;;;4.57;3.53;;;14.10;97.50;;;;;;5037983;28;20491;-74
2022/04/18 07:27:45;;;;;;;4.70;4.27;;;14.30;97.50;;;;;;5034316;28;20970;-74
2022/04/18 07:30:12;;;;;;;5.10;3.63;;;14.40;96.40;;;;;;5032450;28;20477;-74
2022/04/18 07:32:43;;;;;;;6.20;3.87;;;14.30;97.20;;;;;;5032851;28;20449;-74
2022/04/18 07:35:12;;;;;;;5.07;3.83;;;14.30;96.60;;;;;;5042498;28;20449;-75
2022/04/18 07:38:48;;;;;;;4.10;3.50;;;14.30;95.30;;;;;;5052782;28;20459;-75
2022/04/18 07:40:26;;;;;;;4.30;3.60;;;14.40;96.70;;;;;;5043870;28;20476;-76
2022/04/18 07:42:53;;;;;;;4.60;4.20;;;14.60;95.90;;;;;;5041219;28;20519;-74
2022/04/18 07:45:20;;;;;;;4.30;3.70;;;14.60;94.40;;;;;;5031523;28;20481;-74
2022/04/18 07:47:48;;;;;;;4.70;3.73;;;14.40;94.80;;;;;;5030301;28;20512;-74
2022/04/18 07:50:14;;;;;;;3.90;3.50;;;14.40;94.50;;;;;;5035526;28;20485;-74
2022/04/18 07:52:41;;;;;;;4.13;3.53;;;14.20;92.20;;;;;;5031285;28;21011;-74
2022/04/18 07:55:08;;;;;;;4.23;3.77;;;14.30;93.10;;;;;;5046234;28;20452;-74
2022/04/18 07:57:37;;;;;;;5.80;4.00;;;14.40;93.90;;;;;;5046076;28;20860;-74
2022/04/18 08:00:05;;;;;;;5.87;4.00;;;14.70;93.80;;;;;;5031535;28;21179;-74
2022/04/18 08:02:33;;;;;;;5.30;3.63;;;14.60;94.00;;;;;;5046989;28;20468;-74
2022/04/18 08:05:01;;;;;;;7.82;4.20;;;14.50;94.00;;;;;;5040813;28;20468;-74
2022/04/18 08:07:28;;;;;;;5.17;3.50;;;14.60;93.40;;;;;;5040764;28;20453;-74
2022/04/18 08:09:54;;;;;;;4.40;3.10;;;14.60;94.10;;;;;;5031059;28;20481;-74
2022/04/18 08:12:21;;;;;;;3.90;3.40;;;14.90;93.80;;;;;;5032167;28;20810;-73
2022/04/18 08:14:48;;;;;;;4.73;3.97;;;14.90;92.90;;;;;;5033702;28;20207;-74
2022/04/18 08:17:15;;;;;;;4.87;3.80;;;14.80;91.80;;;;;;5040016;28;20453;-75
2022/04/18 08:19:42;;;;;;;4.93;3.93;;;14.60;92.80;;;;;;5030990;28;20905;-74
2022/04/18 08:22:10;;;;;;;4.07;3.60;;;14.80;92.50;;;;;;5034010;28;20448;-73
2022/04/18 08:24:36;;;;;;;6.87;3.80;;;15.20;94.40;;;;;;5049443;28;20542;-73
2022/04/18 08:27:03;;;;;;;5.80;4.00;;;15.50;90.10;;;;;;5041071;28;20442;-73
2022/04/18 08:29:30;;;;;;;6.77;4.40;;;15.60;96.30;;;;;;5044175;28;20439;-73
2022/04/18 08:31:57;;;;;;;8.13;4.37;;;16.10;93.50;;;;;;5049186;28;20457;-73
2022/04/18 08:34:23;;;;;;;4.60;4.10;;;16.30;90.60;;;;;;5050537;28;20420;-74
2022/04/18 08:36:50;;;;;;;5.13;4.30;;;16.20;89.40;;;;;;5049780;28;20427;-74
2022/04/18 08:39:18;;;;;;;7.47;5.23;;;16.20;90.40;;;;;;5036153;28;20459;-74
2022/04/18 08:41:50;;;;;;;5.40;4.27;;;16.10;88.40;;;;;;5039685;28;20428;-74
2022/04/18 08:44:19;;;;;;;6.60;4.10;;;15.90;89.00;;;;;;5049137;28;20493;-73
2022/04/18 08:46:47;;;;;;;8.17;4.73;;;16.00;90.70;;;;;;5049704;28;20448;-75
2022/04/18 08:55:02;;;;;;;7.03;4.43;;;16.70;91.00;;;;;;4988336;28;20409;-74
2022/04/18 08:57:29;;;;;;;6.67;4.30;;;16.80;86.80;;;;;;5003226;28;20497;-74
2022/04/18 08:59:56;;;;;;;6.60;4.37;;;16.70;87.40;;;;;;5012292;28;20447;-72
2022/04/18 09:02:23;;;;;;;5.27;4.37;;;16.50;90.20;;;;;;5030569;28;20453;-74
2022/04/18 09:04:50;;;;;;;5.67;4.27;;;16.50;88.50;;;;;;5037627;28;20497;-74
2022/04/18 09:07:17;;;;;;;7.70;4.97;;;16.70;88.90;;;;;;5043288;28;20805;-75
2022/04/18 09:09:43;;;;;;;5.03;4.30;;;17.10;88.00;;;;;;5050305;28;20848;-74
2022/04/18 09:12:20;;;;;;;7.00;4.17;;;17.10;90.50;;;;;;5045924;28;20830;-75
2022/04/18 09:14:48;;;;;;;5.20;4.20;;;17.30;85.30;;;;;;5030482;28;20419;-74
2022/04/18 09:17:28;;;;;;;6.97;4.43;;;17.00;83.70;;;;;;5035115;28;20427;-74
2022/04/18 09:20:04;;;;;;;7.40;5.13;;;16.90;84.60;;;;;;5035963;28;20451;-74
2022/04/18 09:22:31;;;;;;;6.03;4.53;;;17.10;85.50;;;;;;5047875;28;20460;-74
2022/04/18 09:24:58;;;;;;;5.67;4.40;;;17.50;87.10;;;;;;5053247;28;20528;-74
2022/04/18 09:27:31;;;;;;;5.57;4.03;;;17.80;85.40;;;;;;5043428;28;20790;-75
2022/04/18 09:30:05;;;;;;;7.33;4.77;;;17.70;81.50;;;;;;5035339;28;20223;-73
2022/04/18 09:32:32;;;;;;;5.13;3.88;;;17.60;78.30;;;;;;5045385;28;20425;-72
2022/04/18 09:35:01;;;;;;;5.10;4.60;;;17.60;77.90;;;;;;5051241;28;20206;-73
2022/04/18 09:37:30;;;;;;;5.83;3.53;;;17.30;79.40;;;;;;5054132;28;20794;-73
2022/04/18 09:39:57;;;;;;;6.60;4.00;;;17.40;79.90;;;;;;5042899;28;20435;-73
2022/04/18 09:42:25;;;;;;;4.87;4.17;;;17.10;81.10;;;;;;5042674;28;20302;-72
2022/04/18 09:44:53;;;;;;;10.95;4.10;;;17.30;81.40;;;;;;5042165;28;20495;-73
2022/04/18 09:47:22;;;;;;;5.83;4.03;;;17.40;81.30;;;;;;5051630;28;20252;-73
2022/04/18 09:49:49;;;;;;;6.27;4.67;;;17.60;82.10;;;;;;5052215;28;20479;-72
2022/04/18 09:52:17;;;;;;;7.10;3.50;;;17.50;80.30;;;;;;5042296;28;20473;-73
2022/04/18 09:54:45;;;;;;;4.43;3.83;;;17.30;82.90;;;;;;5052929;28;20795;-74
2022/04/18 09:57:12;;;;;;;4.40;3.50;;;17.70;82.30;;;;;;5053277;28;20472;-74
2022/04/18 09:59:40;;;;;;;4.57;3.77;;;18.00;79.40;;;;;;5038362;28;20443;-74
2022/04/18 10:02:13;;;;;;;6.13;3.40;;;18.10;80.60;;;;;;5052962;28;20456;-75
2022/04/18 10:04:40;;;;;;;4.20;3.47;;;17.70;80.80;;;;;;5044919;28;20978;-75
2022/04/18 10:07:08;;;;;;;4.70;4.03;;;17.30;81.80;;;;;;5039171;28;20849;-75
2022/04/18 10:09:35;;;;;;;4.20;3.50;;;17.20;81.00;;;;;;5035073;28;20506;-75
2022/04/18 10:12:03;;;;;;;6.70;3.73;;;17.50;85.60;;;;;;5033507;28;20478;-76
2022/04/18 10:14:29;;;;;;;3.97;3.50;;;18.10;86.20;;;;;;5033289;28;20928;-78
2022/04/18 10:16:57;;;;;;;5.23;3.80;;;18.50;81.40;;;;;;5039153;28;20962;-76
2022/04/18 10:19:54;;;;;;;6.80;3.50;;;18.70;81.60;;;;;;5035745;28;20473;-76
2022/04/18 10:22:59;;;;;;;4.67;4.00;;;18.70;82.60;;;;;;5049875;28;20457;-77
2022/04/18 10:25:41;;;;;;;4.60;3.37;;;18.80;79.90;;;;;;5016540;28;20508;-76
2022/04/18 10:28:14;;;;;;;5.93;4.53;;;18.30;79.70;;;;;;5034082;28;20432;-78
2022/04/18 10:30:47;;;;;;;4.57;3.40;;;18.40;84.40;;;;;;5034040;28;21005;-78
2022/04/18 10:33:17;;;;;;;4.93;3.87;;;18.80;82.40;;;;;;5032189;28;20494;-79
2022/04/18 10:35:52;;;;;;;5.20;3.63;;;19.50;83.40;;;;;;5033348;28;20449;-78
2022/04/18 10:38:23;;;;;;;3.87;3.30;;;20.10;82.80;;;;;;5033420;28;20455;-77
2022/04/18 10:40:50;;;;;;;4.37;3.20;;;20.50;80.60;;;;;;5035781;28;20558;-77
2022/04/18 10:43:16;;;;;;;5.30;3.50;;;20.60;80.50;;;;;;5041579;28;20540;-77
2022/04/18 10:45:43;;;;;;;3.80;3.40;;;20.80;79.60;;;;;;5045687;28;20476;-77
2022/04/18 10:48:11;;;;;;;4.60;3.10;;;21.10;75.40;;;;;;5048374;28;20456;-76
2022/04/18 10:50:43;;;;;;;5.27;3.50;;;20.80;77.90;;;;;;5050477;28;20555;-76
2022/04/18 10:53:18;;;;;;;6.80;3.50;;;20.50;77.00;;;;;;5052558;28;20453;-79
2022/04/18 10:56:13;;;;;;;9.03;3.03;;;20.50;75.80;;;;;;5052038;28;20455;-77
2022/04/18 10:58:46;;;;;;;4.13;3.23;;;20.80;81.40;;;;;;5044507;28;20471;-76
2022/04/18 11:01:15;;;;;;;4.23;3.67;;;20.40;74.90;;;;;;5038821;28;20506;-76
2022/04/18 11:03:56;;;;;;;4.07;3.23;;;20.00;76.00;;;;;;5044729;28;20555;-75
2022/04/18 11:06:52;;;;;;;5.70;3.40;;;20.00;76.90;;;;;;5038330;28;20490;-77
2022/04/18 11:09:22;;;;;;;5.10;3.40;;;20.10;77.20;;;;;;5033228;28;20982;-79
2022/04/18 11:11:53;;;;;;;3.40;3.10;;;20.60;79.80;;;;;;5041664;28;20453;-77
2022/04/18 11:14:23;;;;;;;4.87;3.03;;;20.90;76.60;;;;;;5034642;28;20453;-78
2022/04/18 11:16:56;;;;;;;2.87;2.60;;;21.20;75.50;;;;;;5039153;28;20457;-77
2022/04/18 11:19:25;;;;;;;4.20;3.10;;;21.30;75.50;;;;;;5039306;28;21014;-78
2022/04/18 11:22:16;;;;;;;3.37;3.07;;;21.40;75.50;;;;;;5043657;28;20503;-78
2022/04/18 11:24:55;;;;;;;3.60;2.80;;;21.30;75.80;;;;;;5032037;28;20890;-76
2022/04/18 11:27:24;;;;;;;2.97;2.73;;;20.90;75.50;;;;;;5042498;28;20511;-76
2022/04/18 11:29:53;;;;;;;4.83;3.10;;;20.50;76.00;;;;;;5051707;28;20479;-75
2022/04/18 11:32:23;;;;;;;4.50;2.70;;;20.30;77.20;;;;;;5034091;28;20968;-79
2022/04/18 11:34:51;;;;;;;3.07;2.77;;;20.60;78.40;;;;;;5049999;28;20630;-76
2022/04/18 11:37:23;;;;;;;6.40;3.17;;;21.00;77.70;;;;;;5053347;28;21014;-76
2022/04/18 11:39:52;;;;;;;4.20;2.97;;;21.30;74.80;;;;;;5050756;28;20469;-76
2022/04/18 11:42:21;;;;;;;4.30;3.00;;;21.20;75.00;;;;;;5045822;28;20508;-76
2022/04/18 11:44:50;;;;;;;3.00;2.60;;;21.20;79.20;;;;;;5050172;28;20451;-75
2022/04/18 11:47:21;;;;;;;4.07;2.90;;;21.70;75.80;;;;;;5045055;28;20214;-76
2022/04/18 11:49:50;;;;;;;8.00;3.47;;;22.20;74.10;;;;;;5044060;28;20496;-76
2022/04/18 11:52:21;;;;;;;4.27;2.80;;;21.90;74.10;;;;;;5035387;28;20534;-77
2022/04/18 11:55:01;;;;;;;4.00;3.03;;;22.00;77.20;;;;;;5034409;28;20454;-77
2022/04/18 11:57:30;;;;;;;4.53;2.93;;;22.30;74.30;;;;;;5032295;28;20453;-75
2022/04/18 11:59:57;;;;;;;3.77;2.93;;;22.20;74.40;;;;;;5045636;28;20473;-75
2022/04/18 12:08:00;;;;;;;4.57;2.90;;;22.50;72.90;;;;;;5040019;28;20444;-74
2022/04/18 12:10:31;;;;;;;2.87;2.67;;;22.80;72.90;;;;;;5040043;28;20550;-74
2022/04/18 12:12:59;;;;;;;3.10;2.90;;;23.20;70.80;;;;;;5046757;28;20460;-77
2022/04/18 12:15:27;;;;;;;3.80;2.67;;;23.20;69.50;;;;;;5035177;28;20449;-74
2022/04/18 12:17:56;;;;;;;2.60;2.27;;;23.00;69.40;;;;;;5036371;28;20445;-74
2022/04/18 12:20:25;;;;;;;2.77;2.50;;;22.60;71.80;;;;;;5034163;28;20518;-73
2022/04/18 12:22:53;;;;;;;3.13;2.53;;;22.40;70.80;;;;;;5040550;28;20860;-73
2022/04/18 12:25:23;;;;;;;2.90;2.70;;;22.40;68.70;;;;;;5037029;28;20497;-76
2022/04/18 12:27:52;;;;;;;3.00;2.73;;;22.20;70.80;;;;;;5033665;28;20464;-74
2022/04/18 12:30:20;;;;;;;3.20;2.40;;;21.70;70.00;;;;;;5036288;28;20477;-74
2022/04/18 12:32:48;;;;;;;3.20;2.77;;;21.50;73.20;;;;;;5033924;28;20446;-75
2022/04/18 12:35:36;;;;;;;2.87;2.67;;;21.70;73.40;;;;;;5035351;28;20881;-72
2022/04/18 12:38:04;;;;;;;3.00;2.67;;;21.00;70.70;;;;;;5032845;28;20459;-72
2022/04/18 12:40:36;;;;;;;4.13;2.50;;;21.20;72.00;;;;;;5038198;28;20444;-73
2022/04/18 12:43:09;;;;;;;2.97;2.77;;;21.60;71.30;;;;;;5037746;28;20265;-75
2022/04/18 12:45:50;;;;;;;2.60;2.40;;;22.00;72.70;;;;;;5042979;28;20522;-74
2022/04/18 12:48:23;;;;;;;4.00;3.37;;;22.10;70.30;;;;;;5034283;28;20460;-74
2022/04/18 12:50:51;;;;;;;30.33;15.93;;;21.70;71.20;;;;;;5038907;28;20491;-74
2022/04/18 12:53:19;;;;;;;5.53;2.93;;;21.90;72.30;;;;;;5046973;28;20510;-77
2022/04/18 12:55:46;;;;;;;4.70;3.00;;;22.00;73.00;;;;;;5035505;28;20448;-73
2022/04/18 12:58:22;;;;;;;4.20;2.23;;;22.30;73.30;;;;;;5034939;28;20461;-70
2022/04/18 13:00:50;;;;;;;2.70;2.40;;;22.90;70.30;;;;;;5035685;28;20548;-72
2022/04/18 13:03:18;;;;;;;3.63;2.40;;;23.10;72.50;;;;;;5033202;28;95464;-71
2022/04/18 13:05:46;;;;;;;2.83;2.47;;;23.30;73.50;;;;;;5042710;28;20538;-73
2022/04/18 13:08:14;;;;;;;2.67;2.30;;;23.50;71.40;;;;;;5038502;28;20448;-71
2022/04/18 13:10:41;;;;;;;6.37;2.53;;;23.20;67.40;;;;;;5033459;28;20461;-72
2022/04/18 13:13:11;;;;;;;2.80;2.17;;;22.80;67.20;;;;;;5032166;28;20454;-73
2022/04/18 13:15:40;;;;;;;3.37;2.27;;;22.30;70.10;;;;;;5035013;28;21007;-74
2022/04/18 13:18:09;;;;;;;3.33;2.93;;;22.20;67.40;;;;;;5039921;28;20929;-73
2022/04/18 13:20:38;;;;;;;5.38;2.20;;;22.20;69.50;;;;;;5034152;28;20443;-77
2022/04/18 13:23:05;;;;;;;2.77;2.57;;;21.90;67.80;;;;;;5038535;28;20206;-73